sensor_id;sensor_type;location;lat;lon;timestamp;pressure;altitude;pressure_sealevel;temperature;humidity
61488;BME280;47351;53.326;-6.298;2022-11-20T00:00:46;100237.98;;;7.23;93.10
61488;BME280;47351;53.326;-6.298;2022-11-20T00:03:35;100244.17;;;7.21;93.14
61488;BME280;47351;53.326;-6.298;2022-11-20T00:06:26;100247.00;;;7.19;93.17
61488;BME280;47351;53.326;-6.298;2022-11-20T00:09:16;100249.72;;;7.18;93.15
61488;BME280;47351;53.326;-6.298;2022-11-20T00:12:06;100249.48;;;7.17;93.02
61488;BME280;47351;53.326;-6.298;2022-11-20T00:14:55;100255.57;;;7.16;93.06
61488;BME280;47351;53.326;-6.298;2022-11-20T00:17:45;100257.98;;;7.17;92.96
61488;BME280;47351;53.326;-6.298;2022-11-20T00:20:34;100256.17;;;7.20;92.73
61488;BME280;47351;53.326;-6.298;2022-11-20T00:23:24;100259.84;;;7.20;92.38
61488;BME280;47351;53.326;-6.298;2022-11-20T00:26:17;100260.70;;;7.18;92.22
61488;BME280;47351;53.326;-6.298;2022-11-20T00:29:09;100260.44;;;7.16;92.27
61488;BME280;47351;53.326;-6.298;2022-11-20T00:31:59;100265.45;;;7.14;92.16
61488;BME280;47351;53.326;-6.298;2022-11-20T00:34:48;100266.47;;;7.10;92.03
61488;BME280;47351;53.326;-6.298;2022-11-20T00:37:38;100266.36;;;7.08;91.88
61488;BME280;47351;53.326;-6.298;2022-11-20T00:40:27;100271.88;;;7.04;91.90
61488;BME280;47351;53.326;-6.298;2022-11-20T00:43:17;100275.91;;;7.01;91.88
61488;BME280;47351;53.326;-6.298;2022-11-20T00:46:08;100272.17;;;6.97;91.75
61488;BME280;47351;53.326;-6.298;2022-11-20T00:48:58;100276.30;;;6.94;91.86
61488;BME280;47351;53.326;-6.298;2022-11-20T00:51:47;100278.23;;;6.93;91.75
61488;BME280;47351;53.326;-6.298;2022-11-20T00:54:37;100280.69;;;6.91;91.76
61488;BME280;47351;53.326;-6.298;2022-11-20T00:57:26;100279.23;;;6.92;91.70
61488;BME280;47351;53.326;-6.298;2022-11-20T01:00:16;100286.34;;;6.92;91.57
61488;BME280;47351;53.326;-6.298;2022-11-20T01:03:06;100288.84;;;6.91;91.50
61488;BME280;47351;53.326;-6.298;2022-11-20T01:06:00;100287.66;;;6.91;91.34
61488;BME280;47351;53.326;-6.298;2022-11-20T01:08:52;100288.86;;;6.89;91.33
61488;BME280;47351;53.326;-6.298;2022-11-20T01:11:43;100288.44;;;6.88;91.30
61488;BME280;47351;53.326;-6.298;2022-11-20T01:14:33;100289.92;;;6.88;91.15
61488;BME280;47351;53.326;-6.298;2022-11-20T01:17:22;100285.58;;;6.86;91.08
61488;BME280;47351;53.326;-6.298;2022-11-20T01:20:12;100287.19;;;6.86;91.15
61488;BME280;47351;53.326;-6.298;2022-11-20T01:23:02;100284.81;;;6.87;91.32
61488;BME280;47351;53.326;-6.298;2022-11-20T01:25:52;100280.91;;;6.87;91.13
61488;BME280;47351;53.326;-6.298;2022-11-20T01:28:41;100275.80;;;6.87;91.02
61488;BME280;47351;53.326;-6.298;2022-11-20T01:31:33;100279.44;;;6.86;90.99
61488;BME280;47351;53.326;-6.298;2022-11-20T01:34:23;100280.38;;;6.86;90.93
61488;BME280;47351;53.326;-6.298;2022-11-20T01:37:13;100283.40;;;6.83;90.73
61488;BME280;47351;53.326;-6.298;2022-11-20T01:40:03;100282.48;;;6.80;90.68
61488;BME280;47351;53.326;-6.298;2022-11-20T01:43:01;100284.56;;;6.77;90.67
61488;BME280;47351;53.326;-6.298;2022-11-20T01:46:17;100286.81;;;6.73;90.64
61488;BME280;47351;53.326;-6.298;2022-11-20T01:49:13;100289.15;;;6.71;90.69
61488;BME280;47351;53.326;-6.298;2022-11-20T01:52:06;100287.05;;;6.69;90.68
61488;BME280;47351;53.326;-6.298;2022-11-20T01:55:00;100295.73;;;6.67;90.65
61488;BME280;47351;53.326;-6.298;2022-11-20T01:57:54;100296.50;;;6.65;90.63
61488;BME280;47351;53.326;-6.298;2022-11-20T02:00:44;100303.19;;;6.63;90.72
61488;BME280;47351;53.326;-6.298;2022-11-20T02:03:33;100304.27;;;6.63;90.71
61488;BME280;47351;53.326;-6.298;2022-11-20T02:06:26;100301.55;;;6.62;90.63
61488;BME280;47351;53.326;-6.298;2022-11-20T02:09:16;100301.52;;;6.61;90.66
61488;BME280;47351;53.326;-6.298;2022-11-20T02:12:06;100299.13;;;6.63;90.66
61488;BME280;47351;53.326;-6.298;2022-11-20T02:15:16;100301.19;;;6.64;90.51
61488;BME280;47351;53.326;-6.298;2022-11-20T02:18:06;100301.90;;;6.64;90.43
61488;BME280;47351;53.326;-6.298;2022-11-20T02:21:00;100304.31;;;6.63;90.35
61488;BME280;47351;53.326;-6.298;2022-11-20T02:24:12;100308.60;;;6.63;90.32
61488;BME280;47351;53.326;-6.298;2022-11-20T02:27:06;100316.35;;;6.65;90.34
61488;BME280;47351;53.326;-6.298;2022-11-20T02:29:59;100322.06;;;6.68;90.37
61488;BME280;47351;53.326;-6.298;2022-11-20T02:32:50;100323.84;;;6.70;90.27
61488;BME280;47351;53.326;-6.298;2022-11-20T02:35:44;100317.14;;;6.73;90.18
61488;BME280;47351;53.326;-6.298;2022-11-20T02:38:34;100309.35;;;6.75;89.89
61488;BME280;47351;53.326;-6.298;2022-11-20T02:41:31;100308.54;;;6.76;89.59
61488;BME280;47351;53.326;-6.298;2022-11-20T02:44:21;100306.35;;;6.75;89.32
61488;BME280;47351;53.326;-6.298;2022-11-20T02:47:11;100298.80;;;6.72;88.65
61488;BME280;47351;53.326;-6.298;2022-11-20T02:50:01;100292.92;;;6.69;88.34
61488;BME280;47351;53.326;-6.298;2022-11-20T02:53:13;100288.48;;;6.63;88.31
61488;BME280;47351;53.326;-6.298;2022-11-20T02:56:07;100292.76;;;6.56;88.22
61488;BME280;47351;53.326;-6.298;2022-11-20T02:59:01;100296.69;;;6.47;88.23
61488;BME280;47351;53.326;-6.298;2022-11-20T03:01:53;100297.65;;;6.39;88.25
61488;BME280;47351;53.326;-6.298;2022-11-20T03:04:42;100300.59;;;6.32;88.36
61488;BME280;47351;53.326;-6.298;2022-11-20T03:07:32;100299.09;;;6.25;88.33
61488;BME280;47351;53.326;-6.298;2022-11-20T03:10:22;100300.45;;;6.18;88.40
61488;BME280;47351;53.326;-6.298;2022-11-20T03:13:13;100297.38;;;6.11;88.44
61488;BME280;47351;53.326;-6.298;2022-11-20T03:16:10;100303.41;;;6.05;88.45
61488;BME280;47351;53.326;-6.298;2022-11-20T03:19:01;100306.38;;;6.01;88.45
61488;BME280;47351;53.326;-6.298;2022-11-20T03:21:50;100309.01;;;6.00;88.35
61488;BME280;47351;53.326;-6.298;2022-11-20T03:24:43;100300.46;;;5.98;88.25
61488;BME280;47351;53.326;-6.298;2022-11-20T03:27:34;100298.20;;;5.98;88.19
61488;BME280;47351;53.326;-6.298;2022-11-20T03:30:24;100287.80;;;5.99;88.06
61488;BME280;47351;53.326;-6.298;2022-11-20T03:33:19;100272.95;;;6.01;87.81
61488;BME280;47351;53.326;-6.298;2022-11-20T03:36:13;100270.35;;;6.02;87.70
61488;BME280;47351;53.326;-6.298;2022-11-20T03:39:03;100266.69;;;6.03;87.69
61488;BME280;47351;53.326;-6.298;2022-11-20T03:41:52;100270.71;;;6.04;87.65
61488;BME280;47351;53.326;-6.298;2022-11-20T03:44:42;100267.61;;;6.05;87.60
61488;BME280;47351;53.326;-6.298;2022-11-20T03:47:31;100266.40;;;6.05;87.47
61488;BME280;47351;53.326;-6.298;2022-11-20T03:50:21;100261.78;;;6.05;87.34
61488;BME280;47351;53.326;-6.298;2022-11-20T03:53:10;100258.48;;;6.06;87.18
61488;BME280;47351;53.326;-6.298;2022-11-20T03:56:00;100266.80;;;6.07;87.17
61488;BME280;47351;53.326;-6.298;2022-11-20T03:58:50;100275.08;;;6.07;87.09
61488;BME280;47351;53.326;-6.298;2022-11-20T04:01:40;100271.83;;;6.08;86.94
61488;BME280;47351;53.326;-6.298;2022-11-20T04:04:36;100265.09;;;6.08;86.83
61488;BME280;47351;53.326;-6.298;2022-11-20T04:07:26;100266.84;;;6.08;86.67
61488;BME280;47351;53.326;-6.298;2022-11-20T04:10:15;100269.20;;;6.09;86.69
61488;BME280;47351;53.326;-6.298;2022-11-20T04:13:05;100271.45;;;6.10;86.62
61488;BME280;47351;53.326;-6.298;2022-11-20T04:16:00;100264.01;;;6.12;86.61
61488;BME280;47351;53.326;-6.298;2022-11-20T04:18:56;100256.45;;;6.13;86.35
61488;BME280;47351;53.326;-6.298;2022-11-20T04:21:51;100251.80;;;6.13;86.14
61488;BME280;47351;53.326;-6.298;2022-11-20T04:28:47;100262.93;;;6.14;85.97
61488;BME280;47351;53.326;-6.298;2022-11-20T04:31:52;100269.38;;;6.13;86.01
61488;BME280;47351;53.326;-6.298;2022-11-20T04:34:51;100276.86;;;6.14;86.17
61488;BME280;47351;53.326;-6.298;2022-11-20T04:37:46;100278.38;;;6.17;86.22
61488;BME280;47351;53.326;-6.298;2022-11-20T04:40:42;100285.45;;;6.17;86.20
61488;BME280;47351;53.326;-6.298;2022-11-20T04:43:32;100286.02;;;6.15;86.19
61488;BME280;47351;53.326;-6.298;2022-11-20T04:46:22;100293.33;;;6.13;86.29
61488;BME280;47351;53.326;-6.298;2022-11-20T04:49:13;100295.92;;;6.10;86.46
61488;BME280;47351;53.326;-6.298;2022-11-20T04:52:04;100301.82;;;6.07;86.47
61488;BME280;47351;53.326;-6.298;2022-11-20T04:55:01;100305.65;;;6.04;86.50
61488;BME280;47351;53.326;-6.298;2022-11-20T04:57:51;100306.55;;;5.99;86.58
61488;BME280;47351;53.326;-6.298;2022-11-20T05:00:41;100307.20;;;5.96;86.72
61488;BME280;47351;53.326;-6.298;2022-11-20T05:03:31;100304.41;;;5.94;86.72
61488;BME280;47351;53.326;-6.298;2022-11-20T05:06:22;100298.90;;;5.92;86.78
61488;BME280;47351;53.326;-6.298;2022-11-20T05:09:12;100308.63;;;5.92;86.75
61488;BME280;47351;53.326;-6.298;2022-11-20T05:12:02;100317.33;;;5.92;86.68
61488;BME280;47351;53.326;-6.298;2022-11-20T05:14:51;100319.83;;;5.92;86.69
61488;BME280;47351;53.326;-6.298;2022-11-20T05:17:41;100322.48;;;5.92;86.61
61488;BME280;47351;53.326;-6.298;2022-11-20T05:20:30;100324.52;;;5.90;86.63
61488;BME280;47351;53.326;-6.298;2022-11-20T05:23:20;100332.95;;;5.89;86.61
61488;BME280;47351;53.326;-6.298;2022-11-20T05:26:14;100334.07;;;5.87;86.57
61488;BME280;47351;53.326;-6.298;2022-11-20T05:29:04;100333.88;;;5.85;86.51
61488;BME280;47351;53.326;-6.298;2022-11-20T05:31:53;100332.65;;;5.83;86.60
61488;BME280;47351;53.326;-6.298;2022-11-20T05:34:43;100328.95;;;5.80;86.57
61488;BME280;47351;53.326;-6.298;2022-11-20T05:37:32;100329.02;;;5.80;86.56
61488;BME280;47351;53.326;-6.298;2022-11-20T05:40:22;100327.39;;;5.80;86.53
61488;BME280;47351;53.326;-6.298;2022-11-20T05:43:11;100319.89;;;5.81;86.29
61488;BME280;47351;53.326;-6.298;2022-11-20T05:46:01;100314.96;;;5.80;86.15
61488;BME280;47351;53.326;-6.298;2022-11-20T05:48:50;100317.33;;;5.80;86.07
61488;BME280;47351;53.326;-6.298;2022-11-20T05:51:40;100323.98;;;5.79;85.97
61488;BME280;47351;53.326;-6.298;2022-11-20T05:54:30;100326.27;;;5.76;85.90
61488;BME280;47351;53.326;-6.298;2022-11-20T05:57:20;100323.14;;;5.74;85.93
61488;BME280;47351;53.326;-6.298;2022-11-20T06:00:12;100323.48;;;5.72;85.93
61488;BME280;47351;53.326;-6.298;2022-11-20T06:03:02;100323.89;;;5.72;85.96
61488;BME280;47351;53.326;-6.298;2022-11-20T06:05:52;100321.13;;;5.71;86.08
61488;BME280;47351;53.326;-6.298;2022-11-20T06:08:42;100313.86;;;5.71;86.11
61488;BME280;47351;53.326;-6.298;2022-11-20T06:11:34;100307.14;;;5.69;85.99
61488;BME280;47351;53.326;-6.298;2022-11-20T06:14:24;100302.77;;;5.69;86.05
61488;BME280;47351;53.326;-6.298;2022-11-20T06:17:14;100300.27;;;5.69;86.06
61488;BME280;47351;53.326;-6.298;2022-11-20T06:20:05;100294.61;;;5.69;85.97
61488;BME280;47351;53.326;-6.298;2022-11-20T06:22:55;100283.14;;;5.69;85.93
61488;BME280;47351;53.326;-6.298;2022-11-20T06:25:44;100279.09;;;5.70;85.83
61488;BME280;47351;53.326;-6.298;2022-11-20T06:28:34;100276.89;;;5.71;85.67
61488;BME280;47351;53.326;-6.298;2022-11-20T06:31:25;100279.96;;;5.70;85.62
61488;BME280;47351;53.326;-6.298;2022-11-20T06:34:14;100277.11;;;5.68;85.50
61488;BME280;47351;53.326;-6.298;2022-11-20T06:37:03;100271.17;;;5.67;85.50
61488;BME280;47351;53.326;-6.298;2022-11-20T06:39:53;100272.27;;;5.67;85.52
61488;BME280;47351;53.326;-6.298;2022-11-20T06:42:42;100272.75;;;5.68;85.48
61488;BME280;47351;53.326;-6.298;2022-11-20T06:45:32;100273.83;;;5.67;85.37
61488;BME280;47351;53.326;-6.298;2022-11-20T06:48:22;100273.73;;;5.69;85.41
61488;BME280;47351;53.326;-6.298;2022-11-20T06:51:11;100268.95;;;5.71;85.41
61488;BME280;47351;53.326;-6.298;2022-11-20T06:54:01;100278.18;;;5.72;85.33
61488;BME280;47351;53.326;-6.298;2022-11-20T06:56:50;100271.67;;;5.74;85.24
61488;BME280;47351;53.326;-6.298;2022-11-20T06:59:40;100266.25;;;5.75;85.22
61488;BME280;47351;53.326;-6.298;2022-11-20T07:02:29;100268.70;;;5.75;85.16
61488;BME280;47351;53.326;-6.298;2022-11-20T07:05:19;100269.93;;;5.75;85.14
61488;BME280;47351;53.326;-6.298;2022-11-20T07:08:08;100269.54;;;5.76;85.13
61488;BME280;47351;53.326;-6.298;2022-11-20T07:11:02;100267.20;;;5.74;85.07
61488;BME280;47351;53.326;-6.298;2022-11-20T07:13:52;100269.23;;;5.73;85.17
61488;BME280;47351;53.326;-6.298;2022-11-20T07:16:42;100263.30;;;5.74;85.20
61488;BME280;47351;53.326;-6.298;2022-11-20T07:19:31;100258.98;;;5.77;85.18
61488;BME280;47351;53.326;-6.298;2022-11-20T07:22:20;100254.84;;;5.79;85.12
61488;BME280;47351;53.326;-6.298;2022-11-20T07:25:11;100251.23;;;5.82;85.08
61488;BME280;47351;53.326;-6.298;2022-11-20T07:28:00;100249.25;;;5.85;84.95
61488;BME280;47351;53.326;-6.298;2022-11-20T07:30:53;100246.96;;;5.88;84.77
61488;BME280;47351;53.326;-6.298;2022-11-20T07:33:44;100254.38;;;5.90;84.50
61488;BME280;47351;53.326;-6.298;2022-11-20T07:36:36;100257.64;;;5.94;84.49
61488;BME280;47351;53.326;-6.298;2022-11-20T07:39:42;100264.05;;;5.97;84.27
61488;BME280;47351;53.326;-6.298;2022-11-20T07:42:59;100266.38;;;5.99;84.07
61488;BME280;47351;53.326;-6.298;2022-11-20T07:45:49;100268.14;;;6.01;84.00
61488;BME280;47351;53.326;-6.298;2022-11-20T07:48:39;100270.27;;;6.07;83.91
61488;BME280;47351;53.326;-6.298;2022-11-20T07:51:29;100265.65;;;6.13;83.61
61488;BME280;47351;53.326;-6.298;2022-11-20T07:54:19;100262.77;;;6.19;83.33
61488;BME280;47351;53.326;-6.298;2022-11-20T07:57:08;100251.03;;;6.23;83.03
61488;BME280;47351;53.326;-6.298;2022-11-20T07:59:59;100250.23;;;6.27;82.89
61488;BME280;47351;53.326;-6.298;2022-11-20T08:02:48;100251.16;;;6.30;82.67
61488;BME280;47351;53.326;-6.298;2022-11-20T08:05:39;100249.61;;;6.33;82.44
61488;BME280;47351;53.326;-6.298;2022-11-20T08:08:30;100247.02;;;6.38;82.40
61488;BME280;47351;53.326;-6.298;2022-11-20T08:11:22;100247.27;;;6.43;82.33
61488;BME280;47351;53.326;-6.298;2022-11-20T08:14:30;100242.16;;;6.47;82.18
61488;BME280;47351;53.326;-6.298;2022-11-20T08:17:20;100233.50;;;6.48;82.15
61488;BME280;47351;53.326;-6.298;2022-11-20T08:20:11;100230.84;;;6.48;82.13
61488;BME280;47351;53.326;-6.298;2022-11-20T08:23:02;100233.94;;;6.47;82.21
61488;BME280;47351;53.326;-6.298;2022-11-20T08:25:55;100231.86;;;6.48;82.17
61488;BME280;47351;53.326;-6.298;2022-11-20T08:28:47;100229.42;;;6.52;82.12
61488;BME280;47351;53.326;-6.298;2022-11-20T08:31:38;100227.72;;;6.55;82.07
61488;BME280;47351;53.326;-6.298;2022-11-20T08:34:27;100225.48;;;6.62;81.69
61488;BME280;47351;53.326;-6.298;2022-11-20T08:37:17;100225.52;;;6.73;81.27
61488;BME280;47351;53.326;-6.298;2022-11-20T08:40:11;100238.21;;;6.85;80.85
61488;BME280;47351;53.326;-6.298;2022-11-20T08:43:07;100236.21;;;6.94;80.38
61488;BME280;47351;53.326;-6.298;2022-11-20T08:46:00;100238.63;;;6.99;80.23
61488;BME280;47351;53.326;-6.298;2022-11-20T08:48:50;100257.23;;;7.01;79.95
61488;BME280;47351;53.326;-6.298;2022-11-20T08:51:40;100262.19;;;7.01;79.90
61488;BME280;47351;53.326;-6.298;2022-11-20T08:54:31;100256.73;;;7.01;79.74
61488;BME280;47351;53.326;-6.298;2022-11-20T08:57:21;100257.93;;;7.00;79.54
61488;BME280;47351;53.326;-6.298;2022-11-20T09:00:13;100245.21;;;6.99;79.52
61488;BME280;47351;53.326;-6.298;2022-11-20T09:03:03;100239.33;;;6.98;79.40
61488;BME280;47351;53.326;-6.298;2022-11-20T09:05:57;100230.61;;;6.95;79.36
61488;BME280;47351;53.326;-6.298;2022-11-20T09:08:51;100226.44;;;6.95;79.23
61488;BME280;47351;53.326;-6.298;2022-11-20T09:11:41;100226.17;;;6.94;79.11
61488;BME280;47351;53.326;-6.298;2022-11-20T09:14:31;100219.30;;;6.93;78.98
61488;BME280;47351;53.326;-6.298;2022-11-20T09:17:20;100218.73;;;6.92;78.92
61488;BME280;47351;53.326;-6.298;2022-11-20T09:20:11;100206.23;;;6.91;78.90
61488;BME280;47351;53.326;-6.298;2022-11-20T09:23:00;100202.24;;;6.90;78.95
61488;BME280;47351;53.326;-6.298;2022-11-20T09:25:50;100190.94;;;6.89;78.77
61488;BME280;47351;53.326;-6.298;2022-11-20T09:28:39;100186.39;;;6.89;78.67
61488;BME280;47351;53.326;-6.298;2022-11-20T09:31:29;100189.61;;;6.88;78.77
61488;BME280;47351;53.326;-6.298;2022-11-20T09:34:18;100175.45;;;6.88;78.91
61488;BME280;47351;53.326;-6.298;2022-11-20T09:37:08;100173.02;;;6.89;78.93
61488;BME280;47351;53.326;-6.298;2022-11-20T09:39:57;100167.96;;;6.92;78.75
61488;BME280;47351;53.326;-6.298;2022-11-20T09:42:54;100163.26;;;6.97;78.63
61488;BME280;47351;53.326;-6.298;2022-11-20T09:45:57;100164.23;;;7.02;78.52
61488;BME280;47351;53.326;-6.298;2022-11-20T09:48:58;100162.80;;;7.07;78.33
61488;BME280;47351;53.326;-6.298;2022-11-20T09:51:58;100164.44;;;7.12;78.20
61488;BME280;47351;53.326;-6.298;2022-11-20T09:54:49;100163.05;;;7.15;78.09
61488;BME280;47351;53.326;-6.298;2022-11-20T09:57:40;100173.06;;;7.18;78.05
61488;BME280;47351;53.326;-6.298;2022-11-20T10:00:31;100165.74;;;7.24;77.93
61488;BME280;47351;53.326;-6.298;2022-11-20T10:03:34;100169.20;;;7.34;77.81
61488;BME280;47351;53.326;-6.298;2022-11-20T10:06:31;100171.60;;;7.44;77.21
61488;BME280;47351;53.326;-6.298;2022-11-20T10:09:25;100174.73;;;7.54;76.86
61488;BME280;47351;53.326;-6.298;2022-11-20T10:12:21;100176.19;;;7.60;76.67
61488;BME280;47351;53.326;-6.298;2022-11-20T10:15:22;100177.88;;;7.65;76.49
61488;BME280;47351;53.326;-6.298;2022-11-20T10:18:26;100170.58;;;7.71;76.29
61488;BME280;47351;53.326;-6.298;2022-11-20T10:21:27;100171.84;;;7.74;76.01
61488;BME280;47351;53.326;-6.298;2022-11-20T10:24:44;100182.94;;;7.77;76.11
61488;BME280;47351;53.326;-6.298;2022-11-20T10:28:02;100183.96;;;7.79;75.93
61488;BME280;47351;53.326;-6.298;2022-11-20T10:31:02;100179.80;;;7.83;75.71
61488;BME280;47351;53.326;-6.298;2022-11-20T10:33:53;100180.83;;;7.89;75.62
61488;BME280;47351;53.326;-6.298;2022-11-20T10:37:05;100185.16;;;7.93;75.35
61488;BME280;47351;53.326;-6.298;2022-11-20T10:40:00;100186.90;;;7.92;74.76
61488;BME280;47351;53.326;-6.298;2022-11-20T10:42:56;100189.92;;;7.92;74.71
61488;BME280;47351;53.326;-6.298;2022-11-20T10:45:49;100194.88;;;7.90;74.95
61488;BME280;47351;53.326;-6.298;2022-11-20T10:48:44;100207.23;;;7.86;75.18
61488;BME280;47351;53.326;-6.298;2022-11-20T10:51:39;100210.28;;;7.80;75.42
61488;BME280;47351;53.326;-6.298;2022-11-20T10:54:42;100213.81;;;7.77;75.71
61488;BME280;47351;53.326;-6.298;2022-11-20T10:57:48;100222.64;;;7.78;76.01
61488;BME280;47351;53.326;-6.298;2022-11-20T11:00:42;100225.09;;;7.87;76.03
61488;BME280;47351;53.326;-6.298;2022-11-20T11:03:33;100222.36;;;8.02;75.89
61488;BME280;47351;53.326;-6.298;2022-11-20T11:06:28;100229.73;;;8.06;75.63
61488;BME280;47351;53.326;-6.298;2022-11-20T11:09:27;100240.33;;;7.98;75.43
61488;BME280;47351;53.326;-6.298;2022-11-20T11:12:19;100250.92;;;7.92;75.66
61488;BME280;47351;53.326;-6.298;2022-11-20T11:15:15;100253.49;;;8.10;75.84
61488;BME280;47351;53.326;-6.298;2022-11-20T11:18:24;100257.55;;;8.48;74.85
61488;BME280;47351;53.326;-6.298;2022-11-20T11:21:14;100260.23;;;8.62;73.83
61488;BME280;47351;53.326;-6.298;2022-11-20T11:24:20;100260.92;;;8.60;73.37
61488;BME280;47351;53.326;-6.298;2022-11-20T11:27:30;100261.20;;;8.68;72.60
61488;BME280;47351;53.326;-6.298;2022-11-20T11:30:20;100254.75;;;9.56;71.25
61488;BME280;47351;53.326;-6.298;2022-11-20T11:33:19;100234.83;;;12.68;66.14
61488;BME280;47351;53.326;-6.298;2022-11-20T11:36:18;100220.67;;;15.32;59.98
61488;BME280;47351;53.326;-6.298;2022-11-20T11:39:13;100210.77;;;17.55;55.26
61488;BME280;47351;53.326;-6.298;2022-11-20T11:42:13;100205.58;;;19.00;49.35
61488;BME280;47351;53.326;-6.298;2022-11-20T11:45:11;100212.04;;;20.23;45.77
61488;BME280;47351;53.326;-6.298;2022-11-20T11:48:04;100203.79;;;21.16;43.79
61488;BME280;47351;53.326;-6.298;2022-11-20T11:50:59;100207.27;;;21.60;39.87
61488;BME280;47351;53.326;-6.298;2022-11-20T11:53:49;100202.69;;;21.61;38.61
61488;BME280;47351;53.326;-6.298;2022-11-20T11:56:39;100215.75;;;19.35;40.59
61488;BME280;47351;53.326;-6.298;2022-11-20T11:59:39;100237.20;;;17.54;43.67
61488;BME280;47351;53.326;-6.298;2022-11-20T12:02:38;100221.95;;;18.40;43.81
61488;BME280;47351;53.326;-6.298;2022-11-20T12:05:38;100228.85;;;19.49;42.08
61488;BME280;47351;53.326;-6.298;2022-11-20T12:08:36;100221.33;;;20.66;42.13
61488;BME280;47351;53.326;-6.298;2022-11-20T12:11:34;100214.36;;;21.57;39.33
61488;BME280;47351;53.326;-6.298;2022-11-20T12:14:33;100222.62;;;22.09;37.99
61488;BME280;47351;53.326;-6.298;2022-11-20T12:17:24;100218.52;;;22.48;37.64
61488;BME280;47351;53.326;-6.298;2022-11-20T12:20:15;100221.35;;;22.47;36.05
61488;BME280;47351;53.326;-6.298;2022-11-20T12:23:11;100220.96;;;22.08;35.38
61488;BME280;47351;53.326;-6.298;2022-11-20T12:26:13;100225.55;;;20.65;37.02
61488;BME280;47351;53.326;-6.298;2022-11-20T12:29:11;100220.91;;;18.64;39.62
61488;BME280;47351;53.326;-6.298;2022-11-20T12:32:26;100235.19;;;16.99;42.07
61488;BME280;47351;53.326;-6.298;2022-11-20T12:35:36;100236.69;;;15.75;44.16
61488;BME280;47351;53.326;-6.298;2022-11-20T12:38:50;100236.45;;;15.19;45.84
61488;BME280;47351;53.326;-6.298;2022-11-20T12:42:07;100242.89;;;15.36;46.34
61488;BME280;47351;53.326;-6.298;2022-11-20T12:45:34;100243.48;;;15.23;46.42
61488;BME280;47351;53.326;-6.298;2022-11-20T12:48:37;100242.13;;;15.14;46.53
61488;BME280;47351;53.326;-6.298;2022-11-20T12:51:50;100237.52;;;15.15;47.00
61488;BME280;47351;53.326;-6.298;2022-11-20T12:54:51;100242.15;;;15.29;47.24
61488;BME280;47351;53.326;-6.298;2022-11-20T12:57:53;100242.27;;;15.54;46.94
61488;BME280;47351;53.326;-6.298;2022-11-20T13:00:50;100246.66;;;15.70;46.45
61488;BME280;47351;53.326;-6.298;2022-11-20T13:03:45;100244.36;;;15.58;46.69
61488;BME280;47351;53.326;-6.298;2022-11-20T13:06:38;100241.10;;;15.52;47.68
61488;BME280;47351;53.326;-6.298;2022-11-20T13:09:32;100240.53;;;15.80;47.19
61488;BME280;47351;53.326;-6.298;2022-11-20T13:12:27;100239.65;;;16.11;46.50
61488;BME280;47351;53.326;-6.298;2022-11-20T13:15:29;100243.05;;;16.12;45.42
61488;BME280;47351;53.326;-6.298;2022-11-20T13:18:23;100248.10;;;15.19;46.41
61488;BME280;47351;53.326;-6.298;2022-11-20T13:21:17;100255.76;;;13.98;48.60
61488;BME280;47351;53.326;-6.298;2022-11-20T13:24:20;100264.16;;;12.99;50.29
61488;BME280;47351;53.326;-6.298;2022-11-20T13:27:22;100271.98;;;12.13;52.29
61488;BME280;47351;53.326;-6.298;2022-11-20T13:30:16;100281.46;;;11.43;54.18
61488;BME280;47351;53.326;-6.298;2022-11-20T13:33:08;100279.55;;;10.92;55.63
61488;BME280;47351;53.326;-6.298;2022-11-20T13:35:59;100278.17;;;10.54;56.73
61488;BME280;47351;53.326;-6.298;2022-11-20T13:38:50;100271.91;;;10.25;57.41
61488;BME280;47351;53.326;-6.298;2022-11-20T13:41:40;100271.31;;;10.04;57.92
61488;BME280;47351;53.326;-6.298;2022-11-20T13:44:35;100272.77;;;9.88;58.40
61488;BME280;47351;53.326;-6.298;2022-11-20T13:47:28;100286.95;;;9.73;58.84
61488;BME280;47351;53.326;-6.298;2022-11-20T13:50:18;100289.33;;;9.61;59.00
61488;BME280;47351;53.326;-6.298;2022-11-20T13:53:19;100288.55;;;9.51;59.20
61488;BME280;47351;53.326;-6.298;2022-11-20T13:56:20;100284.65;;;9.41;59.36
61488;BME280;47351;53.326;-6.298;2022-11-20T13:59:23;100292.69;;;9.32;59.71
61488;BME280;47351;53.326;-6.298;2022-11-20T14:02:20;100303.50;;;9.25;59.87
61488;BME280;47351;53.326;-6.298;2022-11-20T14:05:19;100294.55;;;9.22;60.11
61488;BME280;47351;53.326;-6.298;2022-11-20T14:08:18;100291.45;;;9.23;60.21
61488;BME280;47351;53.326;-6.298;2022-11-20T14:11:16;100289.98;;;9.29;60.00
61488;BME280;47351;53.326;-6.298;2022-11-20T14:14:15;100300.55;;;9.28;59.30
61488;BME280;47351;53.326;-6.298;2022-11-20T14:17:09;100305.56;;;9.23;59.37
61488;BME280;47351;53.326;-6.298;2022-11-20T14:20:12;100311.45;;;9.14;59.40
61488;BME280;47351;53.326;-6.298;2022-11-20T14:23:03;100311.44;;;9.04;59.72
61488;BME280;47351;53.326;-6.298;2022-11-20T14:25:54;100313.60;;;8.97;60.00
61488;BME280;47351;53.326;-6.298;2022-11-20T14:28:49;100318.84;;;8.91;60.13
61488;BME280;47351;53.326;-6.298;2022-11-20T14:31:39;100323.39;;;8.84;60.36
61488;BME280;47351;53.326;-6.298;2022-11-20T14:34:31;100330.28;;;8.78;60.74
61488;BME280;47351;53.326;-6.298;2022-11-20T14:37:24;100333.61;;;8.78;61.25
61488;BME280;47351;53.326;-6.298;2022-11-20T14:40:26;100328.34;;;8.74;61.62
61488;BME280;47351;53.326;-6.298;2022-11-20T14:43:22;100328.36;;;8.66;62.06
61488;BME280;47351;53.326;-6.298;2022-11-20T14:46:12;100333.77;;;8.61;62.65
61488;BME280;47351;53.326;-6.298;2022-11-20T14:49:03;100320.29;;;8.61;63.11
61488;BME280;47351;53.326;-6.298;2022-11-20T14:52:00;100319.30;;;8.53;63.58
61488;BME280;47351;53.326;-6.298;2022-11-20T14:54:52;100317.27;;;8.43;64.06
61488;BME280;47351;53.326;-6.298;2022-11-20T14:57:41;100313.95;;;8.41;64.50
61488;BME280;47351;53.326;-6.298;2022-11-20T15:00:32;100316.61;;;8.39;64.86
61488;BME280;47351;53.326;-6.298;2022-11-20T15:03:22;100323.41;;;8.37;65.22
61488;BME280;47351;53.326;-6.298;2022-11-20T15:06:26;100325.30;;;8.33;65.61
61488;BME280;47351;53.326;-6.298;2022-11-20T15:09:16;100334.58;;;8.31;65.96